DHK362 OMDB-OPKC
Flight info
| Callsign | DHK362 |
|---|---|
| Flight time | 1h 36m |
| Altitude | 37000 |
| Route | IVURO M428 TARBO Z440 DAMUM B524 ALPOR G216 LAKIV |
| Aircraft | B763/H-SDE3FGHIM3RWXY/LB1 |
Departure
| Time | 2026-04-25 23:07 |
|---|---|
| Airport | Dubai International Airport (OMDB) |
Arrival
| Time | 2026-04-26 00:43 |
|---|---|
| Airport | Jinnah International Airport (OPKC) |
| Time | Latitude | Longitude | Altitude | Speed | Heading |
|---|---|---|---|---|---|
| 2026-04-25 22:24 | 25.26209 | 55.33984 | 27 ft | 0 kts | 301° |
| 2026-04-25 22:39 | 25.26203 | 55.33995 | 27 ft | 2 kts | 301° |
| 2026-04-25 22:40 | 25.26195 | 55.34009 | 28 ft | 2 kts | 301° |
| 2026-04-25 22:40 | 25.26187 | 55.34023 | 28 ft | 2 kts | 301° |
| 2026-04-25 22:40 | 25.26179 | 55.34037 | 29 ft | 2 kts | 309° |
| 2026-04-25 22:40 | 25.26168 | 55.34048 | 30 ft | 2 kts | 336° |
| 2026-04-25 22:41 | 25.26154 | 55.34052 | 30 ft | 2 kts | 357° |
| 2026-04-25 22:41 | 25.26138 | 55.34050 | 30 ft | 2 kts | 20° |
| 2026-04-25 22:41 | 25.26131 | 55.34047 | 30 ft | 1 kts | 31° |
| 2026-04-25 22:41 | 25.26127 | 55.34044 | 29 ft | 0 kts | 31° |
| 2026-04-25 22:46 | 25.26129 | 55.34045 | 29 ft | 1 kts | 31° |
| 2026-04-25 22:47 | 25.26147 | 55.34057 | 30 ft | 4 kts | 30° |
| 2026-04-25 22:47 | 25.26179 | 55.34078 | 30 ft | 6 kts | 30° |
| 2026-04-25 22:47 | 25.26204 | 55.34095 | 31 ft | 0 kts | 38° |
| 2026-04-25 22:47 | 25.26209 | 55.34099 | 31 ft | 2 kts | 33° |
| 2026-04-25 22:48 | 25.26234 | 55.34117 | 31 ft | 5 kts | 36° |
| 2026-04-25 22:48 | 25.26254 | 55.34145 | 33 ft | 3 kts | 71° |
| 2026-04-25 22:48 | 25.26257 | 55.34168 | 34 ft | 2 kts | 84° |
| 2026-04-25 22:48 | 25.26255 | 55.34188 | 35 ft | 3 kts | 105° |
| 2026-04-25 22:49 | 25.26250 | 55.34201 | 36 ft | 0 kts | 115° |
| 2026-04-25 22:49 | 25.26248 | 55.34206 | 36 ft | 4 kts | 115° |
| 2026-04-25 22:50 | 25.26223 | 55.34253 | 38 ft | 7 kts | 121° |
| 2026-04-25 22:50 | 25.26199 | 55.34299 | 39 ft | 5 kts | 121° |
| 2026-04-25 22:50 | 25.26184 | 55.34325 | 41 ft | 3 kts | 121° |
| 2026-04-25 22:50 | 25.26168 | 55.34355 | 41 ft | 6 kts | 121° |
| 2026-04-25 22:51 | 25.26140 | 55.34406 | 41 ft | 9 kts | 121° |
| 2026-04-25 22:51 | 25.26101 | 55.34477 | 41 ft | 12 kts | 121° |
| 2026-04-25 22:51 | 25.26052 | 55.34566 | 38 ft | 14 kts | 122° |
| 2026-04-25 22:51 | 25.26000 | 55.34656 | 34 ft | 13 kts | 121° |
| 2026-04-25 22:52 | 25.25950 | 55.34748 | 31 ft | 14 kts | 121° |
| 2026-04-25 22:52 | 25.25895 | 55.34846 | 27 ft | 15 kts | 121° |
| 2026-04-25 22:52 | 25.25843 | 55.34939 | 23 ft | 12 kts | 121° |
| 2026-04-25 22:52 | 25.25813 | 55.34995 | 20 ft | 12 kts | 121° |
| 2026-04-25 22:53 | 25.25760 | 55.35089 | 18 ft | 12 kts | 122° |
| 2026-04-25 22:53 | 25.25705 | 55.35188 | 14 ft | 16 kts | 120° |
| 2026-04-25 22:53 | 25.25650 | 55.35292 | 12 ft | 14 kts | 120° |
| 2026-04-25 22:53 | 25.25601 | 55.35382 | 13 ft | 12 kts | 121° |
| 2026-04-25 22:54 | 25.25562 | 55.35452 | 13 ft | 9 kts | 122° |
| 2026-04-25 22:54 | 25.25532 | 55.35504 | 14 ft | 6 kts | 122° |
| 2026-04-25 22:54 | 25.25512 | 55.35541 | 14 ft | 5 kts | 122° |
| 2026-04-25 22:54 | 25.25500 | 55.35563 | 15 ft | 4 kts | 122° |
| 2026-04-25 22:55 | 25.25469 | 55.35616 | 15 ft | 8 kts | 122° |
| 2026-04-25 22:55 | 25.25435 | 55.35679 | 16 ft | 5 kts | 110° |
| 2026-04-25 22:55 | 25.25440 | 55.35722 | 17 ft | 6 kts | 52° |
| 2026-04-25 22:55 | 25.25483 | 55.35757 | 17 ft | 7 kts | 33° |
| 2026-04-25 22:56 | 25.25500 | 55.35769 | 17 ft | 0 kts | 28° |
| 2026-04-25 23:05 | 25.25503 | 55.35770 | 17 ft | 2 kts | 28° |
| 2026-04-25 23:05 | 25.25538 | 55.35792 | 16 ft | 10 kts | 28° |
| 2026-04-25 23:06 | 25.25597 | 55.35847 | 16 ft | 9 kts | 82° |
| 2026-04-25 23:06 | 25.25585 | 55.35889 | 16 ft | 2 kts | 120° |
| 2026-04-25 23:06 | 25.25547 | 55.35960 | 17 ft | 33 kts | 121° |
| 2026-04-25 23:06 | 25.25322 | 55.36363 | 29 ft | 88 kts | 122° |
| 2026-04-25 23:07 | 25.24915 | 55.37099 | 60 ft | 137 kts | 122° |
| 2026-04-25 23:07 | 25.24548 | 55.37781 | 58 ft | 168 kts | 121° |
| 2026-04-25 23:07 | 25.23659 | 55.39365 | 551 ft | 191 kts | 123° |
| 2026-04-25 23:07 | 25.22963 | 55.40574 | 1370 ft | 183 kts | 122° |
| 2026-04-25 23:08 | 25.22331 | 55.41719 | 1996 ft | 180 kts | 123° |
| 2026-04-25 23:08 | 25.21629 | 55.42950 | 2219 ft | 200 kts | 123° |
| 2026-04-25 23:08 | 25.20917 | 55.44289 | 2843 ft | 198 kts | 120° |
| 2026-04-25 23:08 | 25.20485 | 55.45660 | 3532 ft | 190 kts | 92° |
| 2026-04-25 23:09 | 25.20602 | 55.47112 | 3906 ft | 199 kts | 83° |
| 2026-04-25 23:09 | 25.20679 | 55.48724 | 4156 ft | 216 kts | 87° |
| 2026-04-25 23:09 | 25.20644 | 55.50343 | 4826 ft | 212 kts | 97° |
| 2026-04-25 23:09 | 25.20354 | 55.52004 | 5119 ft | 229 kts | 98° |
| 2026-04-25 23:10 | 25.20134 | 55.53830 | 5410 ft | 248 kts | 94° |
| 2026-04-25 23:10 | 25.19984 | 55.55767 | 5938 ft | 259 kts | 93° |
| 2026-04-25 23:10 | 25.19873 | 55.57718 | 6776 ft | 257 kts | 92° |
| 2026-04-25 23:10 | 25.19819 | 55.59699 | 7292 ft | 266 kts | 83° |
| 2026-04-25 23:11 | 25.20378 | 55.61665 | 7605 ft | 279 kts | 55° |
| 2026-04-25 23:11 | 25.21731 | 55.63257 | 7983 ft | 290 kts | 37° |
| 2026-04-25 23:11 | 25.22775 | 55.64207 | 8436 ft | 293 kts | 38° |
| 2026-04-25 23:11 | 25.24845 | 55.66157 | 9377 ft | 297 kts | 38° |
| 2026-04-25 23:12 | 25.26411 | 55.67627 | 10030 ft | 302 kts | 39° |
| 2026-04-25 23:12 | 25.27486 | 55.68637 | 10329 ft | 311 kts | 39° |
| 2026-04-25 23:12 | 25.29177 | 55.70228 | 10616 ft | 329 kts | 39° |
| 2026-04-25 23:12 | 25.31596 | 55.72504 | 11021 ft | 354 kts | 40° |
| 2026-04-25 23:13 | 25.32852 | 55.73695 | 11217 ft | 366 kts | 41° |
| 2026-04-25 23:13 | 25.35027 | 55.76712 | 11586 ft | 390 kts | 62° |
| 2026-04-25 23:13 | 25.35734 | 55.78576 | 11954 ft | 396 kts | 73° |
| 2026-04-25 23:13 | 25.36295 | 55.82561 | 12927 ft | 400 kts | 86° |
| 2026-04-25 23:14 | 25.36561 | 55.85638 | 13623 ft | 406 kts | 85° |
| 2026-04-25 23:14 | 25.36757 | 55.87728 | 14095 ft | 409 kts | 85° |
| 2026-04-25 23:14 | 25.37060 | 55.90857 | 14776 ft | 414 kts | 86° |
| 2026-04-25 23:14 | 25.37095 | 55.94015 | 15427 ft | 418 kts | 96° |
| 2026-04-25 23:15 | 25.36402 | 55.98255 | 16321 ft | 422 kts | 105° |
| 2026-04-25 23:15 | 25.35756 | 56.01405 | 16979 ft | 426 kts | 104° |
| 2026-04-25 23:15 | 25.35310 | 56.03529 | 17418 ft | 429 kts | 105° |
| 2026-04-25 23:15 | 25.34400 | 56.07827 | 18260 ft | 436 kts | 105° |
| 2026-04-25 23:16 | 25.33928 | 56.10037 | 18707 ft | 438 kts | 105° |
| 2026-04-25 23:16 | 25.32985 | 56.14393 | 19525 ft | 444 kts | 106° |
| 2026-04-25 23:16 | 25.32358 | 56.16592 | 19967 ft | 446 kts | 111° |
| 2026-04-25 23:16 | 25.30960 | 56.20900 | 20783 ft | 451 kts | 111° |
| 2026-04-25 23:17 | 25.29907 | 56.24130 | 21408 ft | 455 kts | 111° |
| 2026-04-25 23:17 | 25.28827 | 56.27435 | 22001 ft | 459 kts | 111° |
| 2026-04-25 23:17 | 25.27741 | 56.30747 | 22565 ft | 463 kts | 111° |
| 2026-04-25 23:17 | 25.26640 | 56.34098 | 23146 ft | 467 kts | 111° |
| 2026-04-25 23:18 | 25.25532 | 56.37464 | 23691 ft | 472 kts | 111° |
| 2026-04-25 23:18 | 25.24783 | 56.39733 | 24049 ft | 474 kts | 111° |
| 2026-04-25 23:18 | 25.23641 | 56.43193 | 24607 ft | 479 kts | 111° |
| 2026-04-25 23:18 | 25.22112 | 56.47820 | 25331 ft | 484 kts | 111° |
| 2026-04-25 23:19 | 25.21352 | 56.50118 | 25707 ft | 486 kts | 111° |
| 2026-04-25 23:19 | 25.19788 | 56.54839 | 26395 ft | 493 kts | 111° |
| 2026-04-25 23:19 | 25.19017 | 56.57166 | 26725 ft | 495 kts | 111° |
| 2026-04-25 23:19 | 25.17282 | 56.61900 | 27403 ft | 500 kts | 114° |
| 2026-04-25 23:20 | 25.16401 | 56.64234 | 27754 ft | 503 kts | 114° |
| 2026-04-25 23:20 | 25.15037 | 56.67847 | 28226 ft | 507 kts | 115° |
| 2026-04-25 23:20 | 25.13237 | 56.72613 | 28856 ft | 512 kts | 114° |
| 2026-04-25 23:20 | 25.11872 | 56.76225 | 29421 ft | 514 kts | 115° |
| 2026-04-25 23:21 | 25.10953 | 56.78657 | 29877 ft | 512 kts | 115° |
| 2026-04-25 23:21 | 25.09587 | 56.82270 | 30537 ft | 511 kts | 115° |
| 2026-04-25 23:21 | 25.08225 | 56.85869 | 31089 ft | 512 kts | 114° |
| 2026-04-25 23:21 | 25.06401 | 56.90683 | 31839 ft | 511 kts | 114° |
| 2026-04-25 23:22 | 25.05491 | 56.93082 | 32204 ft | 511 kts | 114° |
| 2026-04-25 23:22 | 25.04135 | 56.96657 | 32721 ft | 511 kts | 114° |
| 2026-04-25 23:22 | 25.02302 | 57.01483 | 33444 ft | 509 kts | 114° |
| 2026-04-25 23:23 | 25.00040 | 57.07433 | 34204 ft | 509 kts | 114° |
| 2026-04-25 23:23 | 24.98659 | 57.11061 | 34634 ft | 510 kts | 114° |
| 2026-04-25 23:23 | 24.97290 | 57.14652 | 35054 ft | 510 kts | 114° |
| 2026-04-25 23:23 | 24.95473 | 57.19417 | 35568 ft | 510 kts | 113° |
| 2026-04-25 23:24 | 24.94102 | 57.23008 | 35913 ft | 510 kts | 113° |
| 2026-04-25 23:24 | 24.93194 | 57.25385 | 36134 ft | 511 kts | 113° |
| 2026-04-25 23:24 | 24.91812 | 57.29001 | 36436 ft | 511 kts | 112° |
| 2026-04-25 23:24 | 24.90446 | 57.32571 | 36756 ft | 511 kts | 112° |
| 2026-04-25 23:25 | 24.88608 | 57.37372 | 36828 ft | 512 kts | 112° |
| 2026-04-25 23:25 | 24.85844 | 57.44578 | 36831 ft | 510 kts | 112° |
| 2026-04-25 23:26 | 24.83079 | 57.51775 | 36834 ft | 510 kts | 112° |
| 2026-04-25 23:26 | 24.80796 | 57.57710 | 36833 ft | 509 kts | 112° |
| 2026-04-25 23:27 | 24.78036 | 57.64872 | 36835 ft | 509 kts | 112° |
| 2026-04-25 23:27 | 24.74820 | 57.73203 | 36827 ft | 509 kts | 112° |
| 2026-04-25 23:28 | 24.72991 | 57.79369 | 36833 ft | 507 kts | 99° |
| 2026-04-25 23:28 | 24.71947 | 57.87017 | 36829 ft | 507 kts | 96° |
| 2026-04-25 23:29 | 24.70800 | 57.95930 | 36839 ft | 505 kts | 96° |
| 2026-04-25 23:29 | 24.69828 | 58.03553 | 36851 ft | 504 kts | 96° |
| 2026-04-25 23:30 | 24.69022 | 58.09881 | 36856 ft | 502 kts | 96° |
| 2026-04-25 23:30 | 24.68051 | 58.17487 | 36859 ft | 504 kts | 96° |
| 2026-04-25 23:31 | 24.67074 | 58.25116 | 36858 ft | 503 kts | 96° |
| 2026-04-25 23:31 | 24.66102 | 58.32671 | 36860 ft | 503 kts | 96° |
| 2026-04-25 23:32 | 24.65122 | 58.40261 | 36860 ft | 502 kts | 96° |
| 2026-04-25 23:32 | 24.64137 | 58.47853 | 36861 ft | 503 kts | 96° |
| 2026-04-25 23:33 | 24.63147 | 58.55460 | 36861 ft | 503 kts | 96° |
| 2026-04-25 23:33 | 24.62159 | 58.63015 | 36862 ft | 502 kts | 96° |
| 2026-04-25 23:34 | 24.60994 | 58.71891 | 36855 ft | 501 kts | 96° |
| 2026-04-25 23:34 | 24.60168 | 58.78163 | 36856 ft | 502 kts | 96° |
| 2026-04-25 23:35 | 24.59164 | 58.85752 | 36858 ft | 501 kts | 97° |
| 2026-04-25 23:35 | 24.58163 | 58.93288 | 36865 ft | 501 kts | 97° |
| 2026-04-25 23:36 | 24.57161 | 59.00809 | 36871 ft | 500 kts | 97° |
| 2026-04-25 23:36 | 24.56152 | 59.08346 | 36871 ft | 500 kts | 97° |
| 2026-04-25 23:37 | 24.55137 | 59.15898 | 36871 ft | 500 kts | 97° |
| 2026-04-25 23:37 | 24.53972 | 59.23415 | 36871 ft | 500 kts | 102° |
| 2026-04-25 23:38 | 24.52412 | 59.30821 | 36868 ft | 500 kts | 102° |
| 2026-04-25 23:38 | 24.50584 | 59.39426 | 36864 ft | 498 kts | 102° |
| 2026-04-25 23:39 | 24.49267 | 59.45586 | 36864 ft | 498 kts | 102° |
| 2026-04-25 23:39 | 24.47686 | 59.52959 | 36861 ft | 498 kts | 102° |
| 2026-04-25 23:40 | 24.45831 | 59.61583 | 36861 ft | 497 kts | 102° |
| 2026-04-25 23:40 | 24.44505 | 59.67730 | 36857 ft | 498 kts | 102° |
| 2026-04-25 23:41 | 24.42906 | 59.75130 | 36857 ft | 498 kts | 102° |
| 2026-04-25 23:41 | 24.41322 | 59.82436 | 36862 ft | 496 kts | 102° |
| 2026-04-25 23:42 | 24.39717 | 59.89824 | 36871 ft | 497 kts | 102° |
| 2026-04-25 23:42 | 24.37855 | 59.98369 | 36881 ft | 497 kts | 102° |
| 2026-04-25 23:43 | 24.36518 | 60.04490 | 36885 ft | 495 kts | 102° |
| 2026-04-25 23:43 | 24.34908 | 60.11847 | 36886 ft | 495 kts | 102° |
| 2026-04-25 23:44 | 24.33302 | 60.19173 | 36887 ft | 496 kts | 102° |
| 2026-04-25 23:44 | 24.31696 | 60.26480 | 36887 ft | 496 kts | 102° |
| 2026-04-25 23:45 | 24.29817 | 60.35011 | 36888 ft | 496 kts | 102° |
| 2026-04-25 23:45 | 24.28463 | 60.41144 | 36888 ft | 496 kts | 102° |
| 2026-04-25 23:46 | 24.26573 | 60.49677 | 36888 ft | 495 kts | 102° |
| 2026-04-25 23:46 | 24.25227 | 60.55742 | 36889 ft | 495 kts | 102° |
| 2026-04-25 23:47 | 24.23326 | 60.64286 | 36888 ft | 494 kts | 102° |
| 2026-04-25 23:47 | 24.21708 | 60.71542 | 36885 ft | 494 kts | 102° |
| 2026-04-25 23:48 | 24.20069 | 60.78880 | 36885 ft | 494 kts | 102° |
| 2026-04-25 23:48 | 24.18710 | 60.84963 | 36884 ft | 493 kts | 102° |
| 2026-04-25 23:49 | 24.17091 | 60.92193 | 36886 ft | 493 kts | 102° |
| 2026-04-25 23:49 | 24.15459 | 60.99463 | 36888 ft | 493 kts | 102° |
| 2026-04-25 23:50 | 24.13820 | 61.06747 | 36896 ft | 492 kts | 102° |
| 2026-04-25 23:50 | 24.12184 | 61.14005 | 36904 ft | 491 kts | 103° |
| 2026-04-25 23:51 | 24.10553 | 61.21217 | 36915 ft | 491 kts | 103° |
| 2026-04-25 23:51 | 24.08915 | 61.28471 | 36914 ft | 490 kts | 101° |
| 2026-04-25 23:52 | 24.08495 | 61.37020 | 36920 ft | 485 kts | 81° |
| 2026-04-25 23:52 | 24.09309 | 61.43103 | 36915 ft | 484 kts | 79° |
| 2026-04-25 23:53 | 24.10330 | 61.50351 | 36915 ft | 484 kts | 79° |
| 2026-04-25 23:53 | 24.11379 | 61.57635 | 36916 ft | 484 kts | 78° |
| 2026-04-25 23:54 | 24.12603 | 61.66080 | 36913 ft | 483 kts | 79° |
| 2026-04-25 23:54 | 24.13653 | 61.73337 | 36912 ft | 483 kts | 79° |
| 2026-04-25 23:55 | 24.14525 | 61.79375 | 36912 ft | 483 kts | 79° |
| 2026-04-25 23:55 | 24.15517 | 61.86625 | 36913 ft | 483 kts | 79° |
| 2026-04-25 23:56 | 24.16502 | 61.93876 | 36912 ft | 483 kts | 79° |
| 2026-04-25 23:56 | 24.17486 | 62.01137 | 36905 ft | 483 kts | 79° |
| 2026-04-25 23:57 | 24.18469 | 62.08420 | 36886 ft | 483 kts | 79° |
| 2026-04-25 23:57 | 24.19444 | 62.15666 | 36887 ft | 483 kts | 79° |
| 2026-04-25 23:58 | 24.20580 | 62.24146 | 36887 ft | 483 kts | 79° |
| 2026-04-25 23:58 | 24.21386 | 62.30184 | 36886 ft | 483 kts | 79° |
| 2026-04-25 23:59 | 24.22356 | 62.37472 | 36887 ft | 483 kts | 79° |
| 2026-04-25 23:59 | 24.23319 | 62.44743 | 36888 ft | 483 kts | 79° |
| 2026-04-26 00:00 | 24.24439 | 62.53229 | 36888 ft | 483 kts | 79° |
| 2026-04-26 00:00 | 24.25237 | 62.59293 | 36887 ft | 483 kts | 79° |
| 2026-04-26 00:01 | 24.26191 | 62.66577 | 36886 ft | 484 kts | 80° |
| 2026-04-26 00:01 | 24.27297 | 62.75053 | 36884 ft | 483 kts | 80° |
| 2026-04-26 00:02 | 24.28242 | 62.82326 | 36884 ft | 483 kts | 80° |
| 2026-04-26 00:02 | 24.29030 | 62.88406 | 36885 ft | 483 kts | 80° |
| 2026-04-26 00:03 | 24.30121 | 62.96867 | 36877 ft | 483 kts | 80° |
| 2026-04-26 00:03 | 24.30905 | 63.02964 | 36871 ft | 483 kts | 80° |
| 2026-04-26 00:04 | 24.31989 | 63.11437 | 36862 ft | 482 kts | 80° |
| 2026-04-26 00:04 | 24.32763 | 63.17500 | 36859 ft | 482 kts | 80° |
| 2026-04-26 00:05 | 24.33687 | 63.24775 | 36858 ft | 482 kts | 80° |
| 2026-04-26 00:05 | 24.34608 | 63.32047 | 36860 ft | 483 kts | 80° |
| 2026-04-26 00:06 | 24.35524 | 63.39317 | 36860 ft | 482 kts | 80° |
| 2026-04-26 00:06 | 24.36441 | 63.46615 | 36860 ft | 482 kts | 80° |
| 2026-04-26 00:07 | 24.37497 | 63.55065 | 36860 ft | 482 kts | 80° |
| 2026-04-26 00:07 | 24.38252 | 63.61127 | 36860 ft | 482 kts | 80° |
| 2026-04-26 00:08 | 24.39150 | 63.68359 | 36857 ft | 482 kts | 80° |
| 2026-04-26 00:08 | 24.40051 | 63.75648 | 36857 ft | 481 kts | 80° |
| 2026-04-26 00:09 | 24.40943 | 63.82893 | 36857 ft | 482 kts | 80° |
| 2026-04-26 00:09 | 24.41982 | 63.91369 | 36852 ft | 481 kts | 80° |
| 2026-04-26 00:10 | 24.42718 | 63.97403 | 36845 ft | 481 kts | 80° |
| 2026-04-26 00:10 | 24.43603 | 64.04672 | 36837 ft | 481 kts | 80° |
| 2026-04-26 00:11 | 24.44481 | 64.11925 | 36831 ft | 481 kts | 80° |
| 2026-04-26 00:11 | 24.45360 | 64.19208 | 36832 ft | 481 kts | 80° |
| 2026-04-26 00:12 | 24.46232 | 64.26466 | 36824 ft | 483 kts | 80° |
| 2026-04-26 00:12 | 24.47248 | 64.34957 | 36833 ft | 481 kts | 80° |
| 2026-04-26 00:13 | 24.48112 | 64.42212 | 36832 ft | 481 kts | 81° |
| 2026-04-26 00:13 | 24.48832 | 64.48279 | 36834 ft | 481 kts | 81° |
| 2026-04-26 00:14 | 24.49688 | 64.55517 | 36835 ft | 482 kts | 81° |
| 2026-04-26 00:14 | 24.50543 | 64.62795 | 36837 ft | 481 kts | 81° |
| 2026-04-26 00:15 | 24.51395 | 64.70062 | 36835 ft | 481 kts | 81° |
| 2026-04-26 00:15 | 24.52244 | 64.77339 | 36837 ft | 481 kts | 81° |
| 2026-04-26 00:16 | 24.53043 | 64.84640 | 36836 ft | 481 kts | 84° |
| 2026-04-26 00:16 | 24.53609 | 64.91955 | 36832 ft | 481 kts | 84° |
| 2026-04-26 00:17 | 24.54180 | 64.99257 | 36826 ft | 481 kts | 84° |
| 2026-04-26 00:17 | 24.54742 | 65.06479 | 37411 ft | 466 kts | 84° |
| 2026-04-26 00:17 | 24.55022 | 65.10062 | 36677 ft | 479 kts | 84° |
| 2026-04-26 00:18 | 24.55305 | 65.13724 | 36124 ft | 475 kts | 84° |
| 2026-04-26 00:18 | 24.55673 | 65.18504 | 35359 ft | 471 kts | 83° |
| 2026-04-26 00:18 | 24.55855 | 65.20887 | 34974 ft | 469 kts | 83° |
| 2026-04-26 00:18 | 24.56127 | 65.24425 | 34397 ft | 466 kts | 83° |
| 2026-04-26 00:19 | 24.56485 | 65.29112 | 33623 ft | 465 kts | 83° |
| 2026-04-26 00:19 | 24.56665 | 65.31471 | 33232 ft | 467 kts | 83° |
| 2026-04-26 00:19 | 24.56934 | 65.35008 | 32637 ft | 469 kts | 84° |
| 2026-04-26 00:19 | 24.57205 | 65.38576 | 32026 ft | 471 kts | 84° |
| 2026-04-26 00:20 | 24.57568 | 65.43378 | 31194 ft | 472 kts | 84° |
| 2026-04-26 00:20 | 24.57835 | 65.46937 | 30576 ft | 474 kts | 84° |
| 2026-04-26 00:20 | 24.58017 | 65.49358 | 30156 ft | 475 kts | 84° |
| 2026-04-26 00:20 | 24.58285 | 65.52946 | 29533 ft | 476 kts | 84° |
| 2026-04-26 00:21 | 24.58645 | 65.57773 | 28692 ft | 475 kts | 84° |
| 2026-04-26 00:21 | 24.58821 | 65.60146 | 28274 ft | 472 kts | 84° |
| 2026-04-26 00:21 | 24.59173 | 65.64898 | 27446 ft | 467 kts | 85° |
| 2026-04-26 00:21 | 24.59437 | 65.68478 | 26822 ft | 463 kts | 85° |
| 2026-04-26 00:22 | 24.59607 | 65.70798 | 26418 ft | 460 kts | 85° |
| 2026-04-26 00:22 | 24.59860 | 65.74244 | 25818 ft | 456 kts | 85° |
| 2026-04-26 00:22 | 24.60114 | 65.77720 | 25213 ft | 452 kts | 86° |
| 2026-04-26 00:22 | 24.60363 | 65.81126 | 24620 ft | 448 kts | 86° |
| 2026-04-26 00:23 | 24.60692 | 65.85657 | 23832 ft | 443 kts | 86° |
| 2026-04-26 00:23 | 24.60851 | 65.87848 | 23451 ft | 440 kts | 86° |
| 2026-04-26 00:23 | 24.61093 | 65.91206 | 22866 ft | 436 kts | 86° |
| 2026-04-26 00:23 | 24.61329 | 65.94489 | 22287 ft | 432 kts | 86° |
| 2026-04-26 00:24 | 24.61563 | 65.97753 | 21712 ft | 429 kts | 86° |
| 2026-04-26 00:24 | 24.61794 | 66.00987 | 21142 ft | 425 kts | 86° |
| 2026-04-26 00:24 | 24.62024 | 66.04202 | 20576 ft | 421 kts | 86° |
| 2026-04-26 00:24 | 24.62250 | 66.07388 | 20016 ft | 418 kts | 86° |
| 2026-04-26 00:25 | 24.62476 | 66.10567 | 19457 ft | 414 kts | 86° |
| 2026-04-26 00:25 | 24.62695 | 66.13673 | 18910 ft | 411 kts | 86° |
| 2026-04-26 00:25 | 24.62989 | 66.17847 | 18186 ft | 407 kts | 86° |
| 2026-04-26 00:25 | 24.63134 | 66.19900 | 17838 ft | 405 kts | 86° |
| 2026-04-26 00:26 | 24.63346 | 66.22932 | 17335 ft | 401 kts | 86° |
| 2026-04-26 00:26 | 24.63558 | 66.25979 | 16839 ft | 397 kts | 86° |
| 2026-04-26 00:26 | 24.63767 | 66.28973 | 16361 ft | 393 kts | 86° |
| 2026-04-26 00:26 | 24.63973 | 66.31945 | 15895 ft | 389 kts | 86° |
| 2026-04-26 00:27 | 24.64176 | 66.34875 | 15442 ft | 386 kts | 85° |
| 2026-04-26 00:27 | 24.64380 | 66.37825 | 14994 ft | 383 kts | 85° |
| 2026-04-26 00:27 | 24.64579 | 66.40710 | 14559 ft | 379 kts | 85° |
| 2026-04-26 00:27 | 24.64776 | 66.43586 | 14130 ft | 376 kts | 85° |
| 2026-04-26 00:28 | 24.64971 | 66.46426 | 13711 ft | 373 kts | 85° |
| 2026-04-26 00:28 | 24.65164 | 66.49249 | 13295 ft | 370 kts | 85° |
| 2026-04-26 00:28 | 24.65355 | 66.52052 | 12885 ft | 366 kts | 85° |
| 2026-04-26 00:28 | 24.65545 | 66.54852 | 12476 ft | 363 kts | 85° |
| 2026-04-26 00:29 | 24.65731 | 66.57600 | 12089 ft | 360 kts | 85° |
| 2026-04-26 00:29 | 24.65915 | 66.60312 | 11706 ft | 359 kts | 85° |
| 2026-04-26 00:29 | 24.66103 | 66.63077 | 11322 ft | 360 kts | 85° |
| 2026-04-26 00:29 | 24.66286 | 66.65791 | 10945 ft | 361 kts | 85° |
| 2026-04-26 00:30 | 24.66472 | 66.68548 | 10562 ft | 362 kts | 85° |
| 2026-04-26 00:30 | 24.66657 | 66.71307 | 10179 ft | 362 kts | 85° |
| 2026-04-26 00:30 | 24.66836 | 66.73991 | 10072 ft | 348 kts | 85° |
| 2026-04-26 00:30 | 24.67064 | 66.77423 | 10032 ft | 328 kts | 85° |
| 2026-04-26 00:31 | 24.67173 | 66.79061 | 10018 ft | 318 kts | 85° |
| 2026-04-26 00:31 | 24.67331 | 66.81439 | 9995 ft | 304 kts | 85° |
| 2026-04-26 00:31 | 24.67532 | 66.84466 | 9775 ft | 294 kts | 86° |
| 2026-04-26 00:31 | 24.67629 | 66.85944 | 9590 ft | 291 kts | 86° |
| 2026-04-26 00:32 | 24.67775 | 66.88150 | 9340 ft | 288 kts | 86° |
| 2026-04-26 00:32 | 24.67918 | 66.90321 | 9091 ft | 288 kts | 86° |
| 2026-04-26 00:32 | 24.68206 | 66.94724 | 8623 ft | 287 kts | 86° |
| 2026-04-26 00:33 | 24.68348 | 66.96896 | 8407 ft | 287 kts | 86° |
| 2026-04-26 00:33 | 24.68490 | 66.99088 | 8192 ft | 286 kts | 86° |
| 2026-04-26 00:33 | 24.68632 | 67.01263 | 7984 ft | 286 kts | 86° |
| 2026-04-26 00:33 | 24.68777 | 67.03428 | 7785 ft | 285 kts | 83° |
| 2026-04-26 00:34 | 24.69343 | 67.05502 | 7589 ft | 283 kts | 60° |
| 2026-04-26 00:34 | 24.70324 | 67.07376 | 7446 ft | 283 kts | 59° |
| 2026-04-26 00:34 | 24.71307 | 67.09249 | 7280 ft | 282 kts | 58° |
| 2026-04-26 00:34 | 24.72292 | 67.11099 | 7113 ft | 281 kts | 58° |
| 2026-04-26 00:35 | 24.73280 | 67.12942 | 6946 ft | 281 kts | 58° |
| 2026-04-26 00:35 | 24.74603 | 67.15401 | 6717 ft | 279 kts | 58° |
| 2026-04-26 00:35 | 24.75587 | 67.17226 | 6546 ft | 280 kts | 58° |
| 2026-04-26 00:35 | 24.76577 | 67.19063 | 6372 ft | 278 kts | 58° |
| 2026-04-26 00:36 | 24.77236 | 67.20283 | 6256 ft | 277 kts | 57° |
| 2026-04-26 00:36 | 24.78226 | 67.22118 | 6079 ft | 278 kts | 57° |
| 2026-04-26 00:36 | 24.79531 | 67.24537 | 5845 ft | 277 kts | 57° |
| 2026-04-26 00:36 | 24.80512 | 67.26356 | 5667 ft | 276 kts | 57° |
| 2026-04-26 00:37 | 24.81489 | 67.28169 | 5491 ft | 276 kts | 57° |
| 2026-04-26 00:37 | 24.82464 | 67.29977 | 5313 ft | 275 kts | 57° |
| 2026-04-26 00:37 | 24.83436 | 67.31782 | 5134 ft | 275 kts | 57° |
| 2026-04-26 00:37 | 24.84095 | 67.33005 | 5014 ft | 275 kts | 57° |
| 2026-04-26 00:38 | 24.85062 | 67.34802 | 4835 ft | 274 kts | 57° |
| 2026-04-26 00:38 | 24.86027 | 67.36594 | 4656 ft | 274 kts | 57° |
| 2026-04-26 00:38 | 24.87202 | 67.38206 | 4475 ft | 268 kts | 34° |
| 2026-04-26 00:38 | 24.88875 | 67.39051 | 4239 ft | 263 kts | 6° |
| 2026-04-26 00:39 | 24.90657 | 67.38972 | 3923 ft | 256 kts | 345° |
| 2026-04-26 00:39 | 24.92369 | 67.38549 | 3644 ft | 254 kts | 342° |
| 2026-04-26 00:39 | 24.94326 | 67.37311 | 3270 ft | 243 kts | 306° |
| 2026-04-26 00:39 | 24.94873 | 67.36230 | 3168 ft | 236 kts | 286° |
| 2026-04-26 00:40 | 24.94966 | 67.34497 | 3029 ft | 229 kts | 262° |
| 2026-04-26 00:40 | 24.94595 | 67.32258 | 2956 ft | 216 kts | 261° |
| 2026-04-26 00:40 | 24.94328 | 67.30667 | 2692 ft | 212 kts | 261° |
| 2026-04-26 00:40 | 24.94121 | 67.29585 | 2101 ft | 219 kts | 258° |
| 2026-04-26 00:41 | 24.93776 | 67.28047 | 1948 ft | 197 kts | 257° |
| 2026-04-26 00:41 | 24.93348 | 67.26239 | 1642 ft | 168 kts | 256° |
| 2026-04-26 00:41 | 24.93153 | 67.25437 | 1482 ft | 158 kts | 255° |
| 2026-04-26 00:41 | 24.92876 | 67.24317 | 1282 ft | 145 kts | 255° |
| 2026-04-26 00:42 | 24.92522 | 67.22901 | 1056 ft | 146 kts | 255° |
| 2026-04-26 00:42 | 24.92251 | 67.21819 | 870 ft | 147 kts | 255° |
| 2026-04-26 00:42 | 24.92070 | 67.21100 | 740 ft | 146 kts | 255° |
| 2026-04-26 00:42 | 24.91724 | 67.19726 | 494 ft | 145 kts | 255° |
| 2026-04-26 00:43 | 24.91548 | 67.19026 | 368 ft | 144 kts | 254° |
| 2026-04-26 00:43 | 24.91274 | 67.17950 | 169 ft | 147 kts | 255° |
| 2026-04-26 00:43 | 24.90951 | 67.16652 | 110 ft | 94 kts | 254° |
| 2026-04-26 00:43 | 24.90827 | 67.16161 | 109 ft | 39 kts | 255° |
| 2026-04-26 00:44 | 24.90782 | 67.15982 | 109 ft | 9 kts | 254° |
| 2026-04-26 00:44 | 24.90770 | 67.15936 | 109 ft | 9 kts | 254° |
| 2026-04-26 00:44 | 24.90748 | 67.15864 | 109 ft | 10 kts | 249° |
| 2026-04-26 00:44 | 24.90690 | 67.15768 | 109 ft | 12 kts | 221° |
| 2026-04-26 00:45 | 24.90611 | 67.15723 | 109 ft | 13 kts | 200° |
| 2026-04-26 00:45 | 24.90548 | 67.15714 | 109 ft | 14 kts | 172° |
| 2026-04-26 00:45 | 24.90416 | 67.15752 | 109 ft | 15 kts | 164° |
| 2026-04-26 00:45 | 24.90345 | 67.15775 | 109 ft | 16 kts | 164° |
| 2026-04-26 00:46 | 24.90242 | 67.15756 | 109 ft | 17 kts | 249° |
| 2026-04-26 00:46 | 24.90181 | 67.15647 | 109 ft | 14 kts | 200° |
| 2026-04-26 00:46 | 24.90078 | 67.15657 | 109 ft | 10 kts | 172° |
| 2026-04-26 00:46 | 24.90008 | 67.15664 | 109 ft | 8 kts | 175° |
| 2026-04-26 00:47 | 24.89989 | 67.15665 | 109 ft | 0 kts | 176° |